Terminal Aerodrome Forecast
Issued by NWS Central Illinois

Home | Current Version | Previous Version | Text Only | Print | Product List | Glossary On
Versions: 1 2 3 4 5 6 7 8 9 10 11 12 13 14
000
FTUS43 KILX 300520
TAFPIA
TAF
KPIA 300520Z 3006/3106 22005KT P6SM VCTS OVC050CB
     FM300800 22005KT 4SM -RA VCTS OVC035CB
     FM301300 06007KT 3SM -RA VCTS BKN007 OVC015CB
     FM302000 03012G17KT 4SM -RA BR OVC007
     FM310100 02012G21KT P6SM OVC007=

USA.gov is the U.S. government's official web portal to all federal, state and local government web resources and services.